sensor_id;sensor_type;location;lat;lon;timestamp;P1;durP1;ratioP1;P2;durP2;ratioP2
79480;SDS011;68944;48.262;14.208;2023-07-20T00:00:48;11.73;;;3.47;;
79480;SDS011;68944;48.262;14.208;2023-07-20T00:03:15;11.50;;;3.88;;
79480;SDS011;68944;48.262;14.208;2023-07-20T00:05:44;8.52;;;3.83;;
79480;SDS011;68944;48.262;14.208;2023-07-20T00:08:12;12.90;;;4.18;;
79480;SDS011;68944;48.262;14.208;2023-07-20T00:10:37;11.50;;;4.25;;
79480;SDS011;68944;48.262;14.208;2023-07-20T00:13:03;9.48;;;3.88;;
79480;SDS011;68944;48.262;14.208;2023-07-20T00:15:28;7.95;;;4.00;;
79480;SDS011;68944;48.262;14.208;2023-07-20T00:20:29;9.80;;;4.32;;
79480;SDS011;68944;48.262;14.208;2023-07-20T00:22:55;9.98;;;4.32;;
79480;SDS011;68944;48.262;14.208;2023-07-20T00:25:22;8.73;;;3.67;;
79480;SDS011;68944;48.262;14.208;2023-07-20T00:27:48;10.90;;;3.80;;
79480;SDS011;68944;48.262;14.208;2023-07-20T00:30:13;11.23;;;4.00;;
79480;SDS011;68944;48.262;14.208;2023-07-20T00:32:39;11.70;;;3.70;;
79480;SDS011;68944;48.262;14.208;2023-07-20T00:35:04;10.98;;;3.90;;
79480;SDS011;68944;48.262;14.208;2023-07-20T00:37:30;11.35;;;4.43;;
79480;SDS011;68944;48.262;14.208;2023-07-20T00:39:56;10.55;;;3.88;;
79480;SDS011;68944;48.262;14.208;2023-07-20T00:42:22;10.05;;;3.80;;
79480;SDS011;68944;48.262;14.208;2023-07-20T00:44:47;12.32;;;3.97;;
79480;SDS011;68944;48.262;14.208;2023-07-20T00:47:13;11.98;;;4.30;;
79480;SDS011;68944;48.262;14.208;2023-07-20T00:49:38;16.10;;;3.53;;
79480;SDS011;68944;48.262;14.208;2023-07-20T00:52:06;8.50;;;3.80;;
79480;SDS011;68944;48.262;14.208;2023-07-20T00:54:33;9.73;;;3.63;;
79480;SDS011;68944;48.262;14.208;2023-07-20T00:57:00;8.45;;;4.15;;
79480;SDS011;68944;48.262;14.208;2023-07-20T00:59:26;9.50;;;3.95;;
79480;SDS011;68944;48.262;14.208;2023-07-20T01:01:52;10.85;;;3.80;;
79480;SDS011;68944;48.262;14.208;2023-07-20T01:04:18;12.32;;;4.30;;
79480;SDS011;68944;48.262;14.208;2023-07-20T01:14:31;11.77;;;4.65;;
79480;SDS011;68944;48.262;14.208;2023-07-20T01:16:57;8.90;;;4.03;;
79480;SDS011;68944;48.262;14.208;2023-07-20T01:19:23;7.88;;;3.75;;
79480;SDS011;68944;48.262;14.208;2023-07-20T01:21:56;10.25;;;4.22;;
79480;SDS011;68944;48.262;14.208;2023-07-20T01:27:15;9.35;;;4.03;;
79480;SDS011;68944;48.262;14.208;2023-07-20T01:32:44;10.77;;;4.00;;
79480;SDS011;68944;48.262;14.208;2023-07-20T01:35:12;9.45;;;3.88;;
79480;SDS011;68944;48.262;14.208;2023-07-20T01:37:42;10.30;;;4.32;;
79480;SDS011;68944;48.262;14.208;2023-07-20T01:40:10;8.68;;;4.03;;
79480;SDS011;68944;48.262;14.208;2023-07-20T01:42:37;11.35;;;4.22;;
79480;SDS011;68944;48.262;14.208;2023-07-20T01:45:02;10.77;;;4.40;;
79480;SDS011;68944;48.262;14.208;2023-07-20T01:47:28;9.40;;;4.20;;
79480;SDS011;68944;48.262;14.208;2023-07-20T01:49:54;13.02;;;3.80;;
79480;SDS011;68944;48.262;14.208;2023-07-20T01:52:19;12.23;;;4.30;;
79480;SDS011;68944;48.262;14.208;2023-07-20T01:54:45;9.18;;;4.07;;
79480;SDS011;68944;48.262;14.208;2023-07-20T01:57:10;10.18;;;4.00;;
79480;SDS011;68944;48.262;14.208;2023-07-20T01:59:36;8.77;;;4.30;;
79480;SDS011;68944;48.262;14.208;2023-07-20T02:02:01;8.05;;;4.10;;
79480;SDS011;68944;48.262;14.208;2023-07-20T02:04:27;9.85;;;4.40;;
79480;SDS011;68944;48.262;14.208;2023-07-20T02:06:52;8.10;;;3.78;;
79480;SDS011;68944;48.262;14.208;2023-07-20T02:09:18;9.80;;;4.20;;
79480;SDS011;68944;48.262;14.208;2023-07-20T02:11:43;10.00;;;4.25;;
79480;SDS011;68944;48.262;14.208;2023-07-20T02:14:08;8.32;;;4.03;;
79480;SDS011;68944;48.262;14.208;2023-07-20T02:16:34;11.98;;;4.45;;
79480;SDS011;68944;48.262;14.208;2023-07-20T02:18:59;9.02;;;4.50;;
79480;SDS011;68944;48.262;14.208;2023-07-20T02:21:25;9.05;;;3.90;;
79480;SDS011;68944;48.262;14.208;2023-07-20T02:23:50;11.38;;;4.10;;
79480;SDS011;68944;48.262;14.208;2023-07-20T02:26:16;9.75;;;4.22;;
79480;SDS011;68944;48.262;14.208;2023-07-20T02:28:41;8.70;;;3.78;;
79480;SDS011;68944;48.262;14.208;2023-07-20T02:31:07;9.32;;;4.38;;
79480;SDS011;68944;48.262;14.208;2023-07-20T02:33:32;10.43;;;4.50;;
79480;SDS011;68944;48.262;14.208;2023-07-20T02:35:58;9.65;;;4.03;;
79480;SDS011;68944;48.262;14.208;2023-07-20T02:38:23;9.82;;;4.13;;
79480;SDS011;68944;48.262;14.208;2023-07-20T02:40:49;14.63;;;4.05;;
79480;SDS011;68944;48.262;14.208;2023-07-20T02:48:39;10.00;;;3.88;;
79480;SDS011;68944;48.262;14.208;2023-07-20T02:51:05;10.60;;;4.50;;
79480;SDS011;68944;48.262;14.208;2023-07-20T02:53:30;10.38;;;4.68;;
79480;SDS011;68944;48.262;14.208;2023-07-20T02:55:56;11.00;;;4.20;;
79480;SDS011;68944;48.262;14.208;2023-07-20T02:58:21;10.35;;;4.85;;
79480;SDS011;68944;48.262;14.208;2023-07-20T03:00:47;8.07;;;3.88;;
79480;SDS011;68944;48.262;14.208;2023-07-20T03:03:12;9.50;;;4.60;;
79480;SDS011;68944;48.262;14.208;2023-07-20T03:05:40;11.32;;;4.60;;
79480;SDS011;68944;48.262;14.208;2023-07-20T03:08:06;13.88;;;4.90;;
79480;SDS011;68944;48.262;14.208;2023-07-20T03:10:31;11.23;;;4.72;;
79480;SDS011;68944;48.262;14.208;2023-07-20T03:12:57;10.65;;;4.22;;
79480;SDS011;68944;48.262;14.208;2023-07-20T03:15:23;10.38;;;4.97;;
79480;SDS011;68944;48.262;14.208;2023-07-20T03:17:49;8.98;;;4.38;;
79480;SDS011;68944;48.262;14.208;2023-07-20T03:20:17;10.60;;;4.45;;
79480;SDS011;68944;48.262;14.208;2023-07-20T03:22:42;9.95;;;4.78;;
79480;SDS011;68944;48.262;14.208;2023-07-20T03:25:08;9.30;;;4.78;;
79480;SDS011;68944;48.262;14.208;2023-07-20T03:27:34;9.82;;;4.82;;
79480;SDS011;68944;48.262;14.208;2023-07-20T03:30:01;10.93;;;4.57;;
79480;SDS011;68944;48.262;14.208;2023-07-20T03:32:27;11.20;;;5.38;;
79480;SDS011;68944;48.262;14.208;2023-07-20T03:34:53;9.45;;;4.55;;
79480;SDS011;68944;48.262;14.208;2023-07-20T03:37:18;12.13;;;4.60;;
79480;SDS011;68944;48.262;14.208;2023-07-20T03:39:44;12.20;;;4.53;;
79480;SDS011;68944;48.262;14.208;2023-07-20T03:42:09;10.25;;;5.35;;
79480;SDS011;68944;48.262;14.208;2023-07-20T03:44:35;9.77;;;4.03;;
79480;SDS011;68944;48.262;14.208;2023-07-20T03:47:00;9.68;;;3.72;;
79480;SDS011;68944;48.262;14.208;2023-07-20T03:49:26;8.50;;;4.45;;
79480;SDS011;68944;48.262;14.208;2023-07-20T03:51:51;10.52;;;4.97;;
79480;SDS011;68944;48.262;14.208;2023-07-20T03:54:18;10.93;;;4.70;;
79480;SDS011;68944;48.262;14.208;2023-07-20T04:07:59;12.55;;;5.07;;
79480;SDS011;68944;48.262;14.208;2023-07-20T04:12:54;9.85;;;4.68;;
79480;SDS011;68944;48.262;14.208;2023-07-20T04:23:33;10.52;;;3.72;;
79480;SDS011;68944;48.262;14.208;2023-07-20T04:26:00;9.15;;;3.92;;
79480;SDS011;68944;48.262;14.208;2023-07-20T04:28:26;13.93;;;4.60;;
79480;SDS011;68944;48.262;14.208;2023-07-20T04:30:52;10.65;;;4.03;;
79480;SDS011;68944;48.262;14.208;2023-07-20T04:33:18;10.80;;;4.13;;
79480;SDS011;68944;48.262;14.208;2023-07-20T04:38:14;9.93;;;4.20;;
79480;SDS011;68944;48.262;14.208;2023-07-20T04:40:45;11.77;;;4.05;;
79480;SDS011;68944;48.262;14.208;2023-07-20T04:43:11;10.25;;;4.50;;
79480;SDS011;68944;48.262;14.208;2023-07-20T04:45:37;10.50;;;4.30;;
79480;SDS011;68944;48.262;14.208;2023-07-20T04:48:04;12.15;;;5.13;;
79480;SDS011;68944;48.262;14.208;2023-07-20T04:50:33;9.43;;;4.20;;
79480;SDS011;68944;48.262;14.208;2023-07-20T04:52:59;12.00;;;4.22;;
79480;SDS011;68944;48.262;14.208;2023-07-20T04:55:25;13.48;;;4.15;;
79480;SDS011;68944;48.262;14.208;2023-07-20T04:57:51;10.63;;;4.43;;
79480;SDS011;68944;48.262;14.208;2023-07-20T05:00:17;10.32;;;4.22;;
79480;SDS011;68944;48.262;14.208;2023-07-20T05:02:42;8.82;;;4.00;;
79480;SDS011;68944;48.262;14.208;2023-07-20T05:05:08;9.77;;;4.30;;
79480;SDS011;68944;48.262;14.208;2023-07-20T05:07:34;9.63;;;4.45;;
79480;SDS011;68944;48.262;14.208;2023-07-20T05:10:00;11.93;;;4.20;;
79480;SDS011;68944;48.262;14.208;2023-07-20T05:12:25;9.95;;;3.92;;
79480;SDS011;68944;48.262;14.208;2023-07-20T05:14:51;13.45;;;4.45;;
79480;SDS011;68944;48.262;14.208;2023-07-20T05:17:17;17.75;;;4.00;;
79480;SDS011;68944;48.262;14.208;2023-07-20T05:19:42;14.60;;;4.00;;
79480;SDS011;68944;48.262;14.208;2023-07-20T05:22:08;11.38;;;4.22;;
79480;SDS011;68944;48.262;14.208;2023-07-20T05:24:34;8.88;;;4.07;;
79480;SDS011;68944;48.262;14.208;2023-07-20T05:26:59;9.60;;;3.78;;
79480;SDS011;68944;48.262;14.208;2023-07-20T05:29:25;11.15;;;4.80;;
79480;SDS011;68944;48.262;14.208;2023-07-20T05:31:50;10.25;;;4.05;;
79480;SDS011;68944;48.262;14.208;2023-07-20T05:34:16;11.23;;;4.07;;
79480;SDS011;68944;48.262;14.208;2023-07-20T05:39:36;10.70;;;3.88;;
79480;SDS011;68944;48.262;14.208;2023-07-20T05:42:02;9.23;;;4.60;;
79480;SDS011;68944;48.262;14.208;2023-07-20T05:44:27;9.77;;;4.07;;
79480;SDS011;68944;48.262;14.208;2023-07-20T05:46:53;7.93;;;4.00;;
79480;SDS011;68944;48.262;14.208;2023-07-20T05:49:18;11.25;;;4.10;;
79480;SDS011;68944;48.262;14.208;2023-07-20T05:51:44;8.40;;;4.13;;
79480;SDS011;68944;48.262;14.208;2023-07-20T05:54:09;11.75;;;4.65;;
79480;SDS011;68944;48.262;14.208;2023-07-20T05:56:35;9.95;;;4.43;;
79480;SDS011;68944;48.262;14.208;2023-07-20T05:59:00;10.15;;;4.22;;
79480;SDS011;68944;48.262;14.208;2023-07-20T06:01:26;11.50;;;4.35;;
79480;SDS011;68944;48.262;14.208;2023-07-20T06:03:53;12.20;;;4.47;;
79480;SDS011;68944;48.262;14.208;2023-07-20T06:06:18;12.80;;;4.57;;
79480;SDS011;68944;48.262;14.208;2023-07-20T06:08:44;11.88;;;4.07;;
79480;SDS011;68944;48.262;14.208;2023-07-20T06:11:09;10.35;;;4.55;;
79480;SDS011;68944;48.262;14.208;2023-07-20T06:13:35;8.50;;;4.07;;
79480;SDS011;68944;48.262;14.208;2023-07-20T06:16:00;9.30;;;4.38;;
79480;SDS011;68944;48.262;14.208;2023-07-20T06:18:26;11.65;;;4.25;;
79480;SDS011;68944;48.262;14.208;2023-07-20T06:20:52;10.70;;;4.75;;
79480;SDS011;68944;48.262;14.208;2023-07-20T06:23:18;11.60;;;4.72;;
79480;SDS011;68944;48.262;14.208;2023-07-20T06:25:44;10.63;;;4.93;;
79480;SDS011;68944;48.262;14.208;2023-07-20T06:28:10;9.77;;;4.72;;
79480;SDS011;68944;48.262;14.208;2023-07-20T06:30:35;12.13;;;5.35;;
79480;SDS011;68944;48.262;14.208;2023-07-20T06:33:01;11.63;;;5.50;;
79480;SDS011;68944;48.262;14.208;2023-07-20T06:35:26;14.70;;;5.53;;
79480;SDS011;68944;48.262;14.208;2023-07-20T06:37:52;12.65;;;5.40;;
79480;SDS011;68944;48.262;14.208;2023-07-20T06:40:17;10.38;;;5.15;;
79480;SDS011;68944;48.262;14.208;2023-07-20T06:42:43;13.10;;;5.47;;
79480;SDS011;68944;48.262;14.208;2023-07-20T06:45:09;10.57;;;4.90;;
79480;SDS011;68944;48.262;14.208;2023-07-20T06:47:37;12.13;;;4.93;;
79480;SDS011;68944;48.262;14.208;2023-07-20T06:50:06;9.93;;;4.70;;
79480;SDS011;68944;48.262;14.208;2023-07-20T06:52:32;12.18;;;5.35;;
79480;SDS011;68944;48.262;14.208;2023-07-20T06:57:34;11.50;;;4.88;;
79480;SDS011;68944;48.262;14.208;2023-07-20T07:06:29;8.38;;;3.85;;
79480;SDS011;68944;48.262;14.208;2023-07-20T07:08:54;9.30;;;3.85;;
79480;SDS011;68944;48.262;14.208;2023-07-20T07:11:20;9.38;;;3.80;;
79480;SDS011;68944;48.262;14.208;2023-07-20T07:13:46;11.40;;;3.85;;
79480;SDS011;68944;48.262;14.208;2023-07-20T07:16:14;8.45;;;3.50;;
79480;SDS011;68944;48.262;14.208;2023-07-20T07:18:44;10.68;;;3.58;;
79480;SDS011;68944;48.262;14.208;2023-07-20T07:21:10;9.20;;;3.30;;
79480;SDS011;68944;48.262;14.208;2023-07-20T07:23:35;9.90;;;3.70;;
79480;SDS011;68944;48.262;14.208;2023-07-20T07:26:01;8.88;;;3.22;;
79480;SDS011;68944;48.262;14.208;2023-07-20T07:28:27;8.45;;;3.35;;
79480;SDS011;68944;48.262;14.208;2023-07-20T07:30:54;10.38;;;3.58;;
79480;SDS011;68944;48.262;14.208;2023-07-20T07:33:20;8.20;;;3.17;;
79480;SDS011;68944;48.262;14.208;2023-07-20T07:35:45;10.93;;;3.38;;
79480;SDS011;68944;48.262;14.208;2023-07-20T07:38:11;11.20;;;3.28;;
79480;SDS011;68944;48.262;14.208;2023-07-20T07:40:36;9.70;;;3.05;;
79480;SDS011;68944;48.262;14.208;2023-07-20T07:43:02;13.60;;;3.35;;
79480;SDS011;68944;48.262;14.208;2023-07-20T07:45:28;9.40;;;3.33;;
79480;SDS011;68944;48.262;14.208;2023-07-20T07:47:54;10.50;;;3.45;;
79480;SDS011;68944;48.262;14.208;2023-07-20T07:50:19;9.57;;;3.17;;
79480;SDS011;68944;48.262;14.208;2023-07-20T07:52:45;11.57;;;3.10;;
79480;SDS011;68944;48.262;14.208;2023-07-20T07:55:10;8.77;;;3.25;;
79480;SDS011;68944;48.262;14.208;2023-07-20T07:57:36;8.18;;;2.90;;
79480;SDS011;68944;48.262;14.208;2023-07-20T08:00:01;10.20;;;2.80;;
79480;SDS011;68944;48.262;14.208;2023-07-20T08:02:30;7.88;;;2.90;;
79480;SDS011;68944;48.262;14.208;2023-07-20T08:04:55;10.68;;;3.15;;
79480;SDS011;68944;48.262;14.208;2023-07-20T08:07:21;6.97;;;3.15;;
79480;SDS011;68944;48.262;14.208;2023-07-20T08:09:46;9.57;;;2.97;;
79480;SDS011;68944;48.262;14.208;2023-07-20T08:12:12;8.82;;;3.50;;
79480;SDS011;68944;48.262;14.208;2023-07-20T08:14:38;9.30;;;3.90;;
79480;SDS011;68944;48.262;14.208;2023-07-20T08:17:04;8.25;;;3.17;;
79480;SDS011;68944;48.262;14.208;2023-07-20T08:19:29;7.93;;;2.58;;
79480;SDS011;68944;48.262;14.208;2023-07-20T08:21:55;10.82;;;2.80;;
79480;SDS011;68944;48.262;14.208;2023-07-20T08:24:20;15.13;;;2.83;;
79480;SDS011;68944;48.262;14.208;2023-07-20T08:26:46;8.18;;;2.78;;
79480;SDS011;68944;48.262;14.208;2023-07-20T08:29:11;8.63;;;2.85;;
79480;SDS011;68944;48.262;14.208;2023-07-20T08:31:36;8.65;;;2.80;;
79480;SDS011;68944;48.262;14.208;2023-07-20T08:34:02;7.32;;;2.60;;
79480;SDS011;68944;48.262;14.208;2023-07-20T08:36:27;7.20;;;3.00;;
79480;SDS011;68944;48.262;14.208;2023-07-20T08:38:53;10.48;;;2.92;;
79480;SDS011;68944;48.262;14.208;2023-07-20T08:41:19;13.05;;;2.88;;
79480;SDS011;68944;48.262;14.208;2023-07-20T08:43:45;8.45;;;2.70;;
79480;SDS011;68944;48.262;14.208;2023-07-20T08:46:12;8.57;;;2.70;;
79480;SDS011;68944;48.262;14.208;2023-07-20T08:48:40;7.05;;;2.40;;
79480;SDS011;68944;48.262;14.208;2023-07-20T08:51:07;7.35;;;2.45;;
79480;SDS011;68944;48.262;14.208;2023-07-20T08:53:32;7.05;;;2.60;;
79480;SDS011;68944;48.262;14.208;2023-07-20T08:55:59;7.00;;;2.47;;
79480;SDS011;68944;48.262;14.208;2023-07-20T08:58:25;9.07;;;2.17;;
79480;SDS011;68944;48.262;14.208;2023-07-20T09:00:53;8.27;;;2.42;;
79480;SDS011;68944;48.262;14.208;2023-07-20T09:03:20;7.72;;;2.30;;
79480;SDS011;68944;48.262;14.208;2023-07-20T09:05:46;5.95;;;2.05;;
79480;SDS011;68944;48.262;14.208;2023-07-20T09:08:11;6.82;;;2.60;;
79480;SDS011;68944;48.262;14.208;2023-07-20T09:10:37;7.85;;;2.53;;
79480;SDS011;68944;48.262;14.208;2023-07-20T09:13:03;7.50;;;2.40;;
79480;SDS011;68944;48.262;14.208;2023-07-20T09:15:29;10.95;;;2.95;;
79480;SDS011;68944;48.262;14.208;2023-07-20T09:17:55;6.68;;;2.40;;
79480;SDS011;68944;48.262;14.208;2023-07-20T09:20:21;11.48;;;2.83;;
79480;SDS011;68944;48.262;14.208;2023-07-20T09:22:47;9.20;;;2.38;;
79480;SDS011;68944;48.262;14.208;2023-07-20T09:25:16;7.47;;;2.80;;
79480;SDS011;68944;48.262;14.208;2023-07-20T09:27:46;6.50;;;2.30;;
79480;SDS011;68944;48.262;14.208;2023-07-20T09:30:16;7.97;;;2.15;;
79480;SDS011;68944;48.262;14.208;2023-07-20T09:32:48;10.45;;;2.40;;
79480;SDS011;68944;48.262;14.208;2023-07-20T09:35:16;8.27;;;2.05;;
79480;SDS011;68944;48.262;14.208;2023-07-20T09:37:46;10.02;;;2.15;;
79480;SDS011;68944;48.262;14.208;2023-07-20T09:40:16;6.57;;;2.33;;
79480;SDS011;68944;48.262;14.208;2023-07-20T09:42:42;7.70;;;2.42;;
79480;SDS011;68944;48.262;14.208;2023-07-20T09:45:08;6.35;;;2.30;;
79480;SDS011;68944;48.262;14.208;2023-07-20T09:47:35;6.85;;;2.03;;
79480;SDS011;68944;48.262;14.208;2023-07-20T09:50:03;6.95;;;2.67;;
79480;SDS011;68944;48.262;14.208;2023-07-20T09:52:29;8.05;;;2.60;;
79480;SDS011;68944;48.262;14.208;2023-07-20T09:54:56;6.88;;;2.40;;
79480;SDS011;68944;48.262;14.208;2023-07-20T09:57:22;8.18;;;2.83;;
79480;SDS011;68944;48.262;14.208;2023-07-20T09:59:48;7.22;;;2.58;;
79480;SDS011;68944;48.262;14.208;2023-07-20T10:02:20;10.63;;;2.60;;
79480;SDS011;68944;48.262;14.208;2023-07-20T10:04:51;7.45;;;2.65;;
79480;SDS011;68944;48.262;14.208;2023-07-20T10:07:18;6.78;;;2.00;;
79480;SDS011;68944;48.262;14.208;2023-07-20T10:09:46;8.27;;;2.50;;
79480;SDS011;68944;48.262;14.208;2023-07-20T10:12:13;6.45;;;2.25;;
79480;SDS011;68944;48.262;14.208;2023-07-20T10:14:42;7.40;;;2.50;;
79480;SDS011;68944;48.262;14.208;2023-07-20T10:17:18;5.32;;;2.03;;
79480;SDS011;68944;48.262;14.208;2023-07-20T10:19:48;5.97;;;1.80;;
79480;SDS011;68944;48.262;14.208;2023-07-20T10:22:18;7.03;;;2.00;;
79480;SDS011;68944;48.262;14.208;2023-07-20T10:24:49;7.35;;;2.03;;
79480;SDS011;68944;48.262;14.208;2023-07-20T10:27:19;8.95;;;2.10;;
79480;SDS011;68944;48.262;14.208;2023-07-20T10:29:46;8.40;;;2.50;;
79480;SDS011;68944;48.262;14.208;2023-07-20T10:49:58;8.10;;;2.22;;
79480;SDS011;68944;48.262;14.208;2023-07-20T10:52:36;5.93;;;1.90;;
79480;SDS011;68944;48.262;14.208;2023-07-20T10:55:15;7.30;;;2.20;;
79480;SDS011;68944;48.262;14.208;2023-07-20T10:57:41;7.97;;;1.98;;
79480;SDS011;68944;48.262;14.208;2023-07-20T11:00:08;7.25;;;1.83;;
79480;SDS011;68944;48.262;14.208;2023-07-20T11:02:41;5.63;;;1.90;;
79480;SDS011;68944;48.262;14.208;2023-07-20T11:05:33;8.82;;;2.38;;
79480;SDS011;68944;48.262;14.208;2023-07-20T11:08:04;9.10;;;2.00;;
79480;SDS011;68944;48.262;14.208;2023-07-20T11:10:31;7.20;;;2.10;;
79480;SDS011;68944;48.262;14.208;2023-07-20T11:18:25;9.82;;;2.20;;
79480;SDS011;68944;48.262;14.208;2023-07-20T11:20:51;6.50;;;1.90;;
79480;SDS011;68944;48.262;14.208;2023-07-20T11:26:07;6.65;;;1.88;;
79480;SDS011;68944;48.262;14.208;2023-07-20T11:28:33;5.75;;;1.77;;
79480;SDS011;68944;48.262;14.208;2023-07-20T11:30:59;5.55;;;1.75;;
79480;SDS011;68944;48.262;14.208;2023-07-20T11:33:24;6.90;;;1.83;;
79480;SDS011;68944;48.262;14.208;2023-07-20T11:38:41;7.78;;;1.85;;
79480;SDS011;68944;48.262;14.208;2023-07-20T11:43:45;5.63;;;2.00;;
79480;SDS011;68944;48.262;14.208;2023-07-20T11:46:11;7.55;;;1.92;;
79480;SDS011;68944;48.262;14.208;2023-07-20T11:48:36;5.15;;;1.80;;
79480;SDS011;68944;48.262;14.208;2023-07-20T11:51:02;6.18;;;1.60;;
79480;SDS011;68944;48.262;14.208;2023-07-20T11:53:27;6.32;;;1.95;;
79480;SDS011;68944;48.262;14.208;2023-07-20T11:55:54;7.18;;;1.70;;
79480;SDS011;68944;48.262;14.208;2023-07-20T11:58:19;7.80;;;1.95;;
79480;SDS011;68944;48.262;14.208;2023-07-20T12:00:47;5.70;;;1.60;;
79480;SDS011;68944;48.262;14.208;2023-07-20T12:03:12;4.85;;;1.80;;
79480;SDS011;68944;48.262;14.208;2023-07-20T12:05:38;5.75;;;1.50;;
79480;SDS011;68944;48.262;14.208;2023-07-20T12:08:04;5.72;;;1.60;;
79480;SDS011;68944;48.262;14.208;2023-07-20T12:10:29;6.60;;;1.80;;
79480;SDS011;68944;48.262;14.208;2023-07-20T12:13:00;4.75;;;1.42;;
79480;SDS011;68944;48.262;14.208;2023-07-20T12:15:28;8.48;;;3.95;;
79480;SDS011;68944;48.262;14.208;2023-07-20T12:20:28;5.10;;;1.77;;
79480;SDS011;68944;48.262;14.208;2023-07-20T12:23:06;6.28;;;1.70;;
79480;SDS011;68944;48.262;14.208;2023-07-20T12:25:41;9.20;;;1.83;;
79480;SDS011;68944;48.262;14.208;2023-07-20T12:28:08;6.47;;;1.70;;
79480;SDS011;68944;48.262;14.208;2023-07-20T12:30:44;4.95;;;1.70;;
79480;SDS011;68944;48.262;14.208;2023-07-20T12:33:11;6.13;;;1.83;;
79480;SDS011;68944;48.262;14.208;2023-07-20T12:40:51;5.63;;;1.73;;
79480;SDS011;68944;48.262;14.208;2023-07-20T12:49:06;4.40;;;1.60;;
79480;SDS011;68944;48.262;14.208;2023-07-20T12:51:32;5.18;;;1.60;;
79480;SDS011;68944;48.262;14.208;2023-07-20T12:53:58;4.53;;;1.40;;
79480;SDS011;68944;48.262;14.208;2023-07-20T12:56:23;6.65;;;1.52;;
79480;SDS011;68944;48.262;14.208;2023-07-20T12:58:49;5.53;;;1.70;;
79480;SDS011;68944;48.262;14.208;2023-07-20T13:01:15;6.10;;;1.88;;
79480;SDS011;68944;48.262;14.208;2023-07-20T13:03:41;5.65;;;1.52;;
79480;SDS011;68944;48.262;14.208;2023-07-20T13:06:06;4.50;;;1.67;;
79480;SDS011;68944;48.262;14.208;2023-07-20T13:08:32;5.85;;;1.67;;
79480;SDS011;68944;48.262;14.208;2023-07-20T13:10:57;5.28;;;1.48;;
79480;SDS011;68944;48.262;14.208;2023-07-20T13:13:22;5.00;;;1.50;;
79480;SDS011;68944;48.262;14.208;2023-07-20T13:15:48;5.45;;;1.50;;
79480;SDS011;68944;48.262;14.208;2023-07-20T13:18:14;6.13;;;1.58;;
79480;SDS011;68944;48.262;14.208;2023-07-20T13:23:09;6.73;;;1.63;;
79480;SDS011;68944;48.262;14.208;2023-07-20T13:34:11;4.70;;;1.77;;
79480;SDS011;68944;48.262;14.208;2023-07-20T13:39:09;5.72;;;1.70;;
79480;SDS011;68944;48.262;14.208;2023-07-20T13:41:34;5.43;;;1.80;;
79480;SDS011;68944;48.262;14.208;2023-07-20T13:44:00;5.50;;;1.67;;
79480;SDS011;68944;48.262;14.208;2023-07-20T13:46:26;4.90;;;1.73;;
79480;SDS011;68944;48.262;14.208;2023-07-20T13:48:51;6.97;;;1.60;;
79480;SDS011;68944;48.262;14.208;2023-07-20T13:51:16;8.95;;;1.80;;
79480;SDS011;68944;48.262;14.208;2023-07-20T13:53:42;6.18;;;1.50;;
79480;SDS011;68944;48.262;14.208;2023-07-20T13:56:10;6.90;;;1.40;;
79480;SDS011;68944;48.262;14.208;2023-07-20T13:58:35;6.35;;;1.70;;
79480;SDS011;68944;48.262;14.208;2023-07-20T14:01:02;6.00;;;1.60;;
79480;SDS011;68944;48.262;14.208;2023-07-20T14:03:27;4.50;;;1.58;;
79480;SDS011;68944;48.262;14.208;2023-07-20T14:05:53;5.78;;;1.63;;
79480;SDS011;68944;48.262;14.208;2023-07-20T14:08:18;6.13;;;1.65;;
79480;SDS011;68944;48.262;14.208;2023-07-20T14:10:43;6.03;;;1.83;;
79480;SDS011;68944;48.262;14.208;2023-07-20T14:13:09;5.05;;;1.42;;
79480;SDS011;68944;48.262;14.208;2023-07-20T14:15:34;6.38;;;1.50;;
79480;SDS011;68944;48.262;14.208;2023-07-20T14:18:00;7.75;;;1.60;;
79480;SDS011;68944;48.262;14.208;2023-07-20T14:20:26;5.25;;;1.60;;
79480;SDS011;68944;48.262;14.208;2023-07-20T14:22:51;5.43;;;1.80;;
79480;SDS011;68944;48.262;14.208;2023-07-20T14:25:17;4.95;;;1.63;;
79480;SDS011;68944;48.262;14.208;2023-07-20T14:27:42;4.57;;;1.63;;
79480;SDS011;68944;48.262;14.208;2023-07-20T14:30:08;7.90;;;1.90;;
79480;SDS011;68944;48.262;14.208;2023-07-20T14:32:34;5.20;;;1.42;;
79480;SDS011;68944;48.262;14.208;2023-07-20T14:34:59;4.90;;;1.50;;
79480;SDS011;68944;48.262;14.208;2023-07-20T14:37:25;4.07;;;1.50;;
79480;SDS011;68944;48.262;14.208;2023-07-20T14:39:50;8.55;;;1.92;;
79480;SDS011;68944;48.262;14.208;2023-07-20T14:42:16;6.40;;;1.60;;
79480;SDS011;68944;48.262;14.208;2023-07-20T14:44:43;5.82;;;1.42;;
79480;SDS011;68944;48.262;14.208;2023-07-20T14:47:08;4.80;;;1.63;;
79480;SDS011;68944;48.262;14.208;2023-07-20T14:49:34;4.72;;;1.60;;
79480;SDS011;68944;48.262;14.208;2023-07-20T14:51:59;5.97;;;1.60;;
79480;SDS011;68944;48.262;14.208;2023-07-20T14:54:24;11.98;;;1.70;;
79480;SDS011;68944;48.262;14.208;2023-07-20T14:56:50;5.38;;;1.98;;
79480;SDS011;68944;48.262;14.208;2023-07-20T14:59:17;7.03;;;1.80;;
79480;SDS011;68944;48.262;14.208;2023-07-20T15:01:43;5.95;;;1.50;;
79480;SDS011;68944;48.262;14.208;2023-07-20T15:04:12;6.10;;;1.63;;
79480;SDS011;68944;48.262;14.208;2023-07-20T15:06:39;7.63;;;1.88;;
79480;SDS011;68944;48.262;14.208;2023-07-20T15:09:05;7.13;;;1.70;;
79480;SDS011;68944;48.262;14.208;2023-07-20T15:11:30;6.63;;;1.63;;
79480;SDS011;68944;48.262;14.208;2023-07-20T15:13:56;5.45;;;1.38;;
79480;SDS011;68944;48.262;14.208;2023-07-20T15:16:23;4.90;;;1.50;;
79480;SDS011;68944;48.262;14.208;2023-07-20T15:18:49;5.28;;;1.50;;
79480;SDS011;68944;48.262;14.208;2023-07-20T15:21:15;5.20;;;1.77;;
79480;SDS011;68944;48.262;14.208;2023-07-20T15:23:41;5.35;;;1.70;;
79480;SDS011;68944;48.262;14.208;2023-07-20T15:26:07;6.68;;;1.70;;
79480;SDS011;68944;48.262;14.208;2023-07-20T15:28:32;5.28;;;1.50;;
79480;SDS011;68944;48.262;14.208;2023-07-20T15:30:59;5.18;;;1.48;;
79480;SDS011;68944;48.262;14.208;2023-07-20T15:35:51;5.10;;;1.65;;
79480;SDS011;68944;48.262;14.208;2023-07-20T15:38:16;4.88;;;1.60;;
79480;SDS011;68944;48.262;14.208;2023-07-20T15:40:42;6.60;;;1.70;;
79480;SDS011;68944;48.262;14.208;2023-07-20T15:43:09;5.05;;;1.80;;
79480;SDS011;68944;48.262;14.208;2023-07-20T15:45:34;9.18;;;1.60;;
79480;SDS011;68944;48.262;14.208;2023-07-20T15:48:00;5.75;;;1.83;;
79480;SDS011;68944;48.262;14.208;2023-07-20T15:50:26;5.15;;;1.55;;
79480;SDS011;68944;48.262;14.208;2023-07-20T15:52:51;5.05;;;1.90;;
79480;SDS011;68944;48.262;14.208;2023-07-20T15:55:17;7.28;;;1.90;;
79480;SDS011;68944;48.262;14.208;2023-07-20T15:57:43;7.78;;;2.10;;
79480;SDS011;68944;48.262;14.208;2023-07-20T16:00:09;5.20;;;1.70;;
79480;SDS011;68944;48.262;14.208;2023-07-20T16:02:38;5.85;;;1.90;;
79480;SDS011;68944;48.262;14.208;2023-07-20T16:05:03;5.80;;;1.75;;
79480;SDS011;68944;48.262;14.208;2023-07-20T16:07:29;6.32;;;1.63;;
79480;SDS011;68944;48.262;14.208;2023-07-20T16:09:56;5.63;;;1.52;;
79480;SDS011;68944;48.262;14.208;2023-07-20T16:12:26;9.60;;;1.88;;
79480;SDS011;68944;48.262;14.208;2023-07-20T16:14:53;5.55;;;1.80;;
79480;SDS011;68944;48.262;14.208;2023-07-20T16:17:19;5.75;;;1.70;;
79480;SDS011;68944;48.262;14.208;2023-07-20T16:19:45;5.38;;;1.60;;
79480;SDS011;68944;48.262;14.208;2023-07-20T16:22:11;10.10;;;1.90;;
79480;SDS011;68944;48.262;14.208;2023-07-20T16:24:40;4.53;;;1.55;;